createdAt,value
2022-10-31T00:00:02.898Z,0
2022-10-31T00:05:02.703Z,0
2022-10-31T00:10:02.684Z,0
2022-10-31T00:15:02.939Z,0
2022-10-31T00:20:02.676Z,0
2022-10-31T00:25:02.930Z,0
2022-10-31T00:30:03.160Z,0
2022-10-31T00:35:02.739Z,0
2022-10-31T00:40:02.727Z,0
2022-10-31T00:45:02.839Z,0
2022-10-31T00:50:02.750Z,0
2022-10-31T00:55:02.895Z,0
2022-10-31T01:00:02.928Z,0
2022-10-31T01:05:02.749Z,0
2022-10-31T01:10:02.757Z,0
2022-10-31T01:15:02.774Z,0
2022-10-31T01:20:02.748Z,0
2022-10-31T01:25:02.788Z,0
2022-10-31T01:30:02.872Z,0
2022-10-31T01:35:02.971Z,0
2022-10-31T01:40:02.762Z,0
2022-10-31T01:45:02.859Z,0
2022-10-31T01:50:02.813Z,0
2022-10-31T01:55:02.833Z,0
2022-10-31T02:00:02.993Z,0
2022-10-31T02:05:02.977Z,0
2022-10-31T02:10:02.788Z,0
2022-10-31T02:15:02.855Z,0
2022-10-31T02:20:02.805Z,0
2022-10-31T02:25:02.979Z,0
2022-10-31T02:30:02.830Z,0
2022-10-31T02:35:03.107Z,0
2022-10-31T02:40:02.821Z,0
2022-10-31T02:45:02.883Z,0
2022-10-31T02:50:02.814Z,0
2022-10-31T02:55:02.819Z,0
2022-10-31T03:00:02.857Z,0
2022-10-31T03:05:02.949Z,0
2022-10-31T03:10:03.416Z,0
2022-10-31T03:15:02.879Z,0
2022-10-31T03:20:02.838Z,0
2022-10-31T03:25:02.892Z,0
2022-10-31T03:30:02.873Z,0
2022-10-31T03:35:02.935Z,0
2022-10-31T03:40:03.079Z,0
2022-10-31T03:45:02.892Z,0
2022-10-31T03:50:02.866Z,0
2022-10-31T03:55:02.889Z,0
2022-10-31T04:00:02.929Z,0
2022-10-31T04:05:02.941Z,0
2022-10-31T04:10:03.071Z,0
2022-10-31T04:15:03.044Z,0
2022-10-31T04:20:02.961Z,0
2022-10-31T04:25:02.898Z,0
2022-10-31T04:30:02.931Z,0
2022-10-31T04:35:02.910Z,0
2022-10-31T04:40:02.925Z,0
2022-10-31T04:45:03.494Z,0
2022-10-31T04:50:03.181Z,0
2022-10-31T04:55:03.018Z,0
2022-10-31T05:00:03.011Z,0
2022-10-31T05:05:02.989Z,0
2022-10-31T05:10:02.930Z,0
2022-10-31T05:15:02.949Z,0
2022-10-31T05:20:03.169Z,0
2022-10-31T05:25:03.256Z,0
2022-10-31T05:30:02.992Z,0
2022-10-31T05:35:02.973Z,0
2022-10-31T05:40:05.249Z,0
2022-10-31T05:45:03.153Z,0
2022-10-31T05:50:02.979Z,0
2022-10-31T05:55:03.046Z,0
2022-10-31T06:00:03.190Z,0
2022-10-31T06:05:03.063Z,0
2022-10-31T06:10:02.959Z,0
2022-10-31T06:15:02.996Z,0
2022-10-31T06:20:03.024Z,0
2022-10-31T06:25:02.980Z,0
2022-10-31T06:30:03.127Z,0
2022-10-31T06:35:03.238Z,0
2022-10-31T06:40:04.536Z,0
2022-10-31T06:45:03.032Z,0.2522962962962963
2022-10-31T06:50:03.110Z,0.24351322751322751
2022-10-31T06:55:03.119Z,0.2260846560846561
2022-10-31T07:00:03.037Z,0.39192592592592596
2022-10-31T07:05:03.113Z,0.5567936507936508
2022-10-31T07:10:03.450Z,1.0484656084656085
2022-10-31T07:15:03.199Z,1.1364232804232803
2022-10-31T07:20:00.564Z,1.4266349206349207
2022-10-31T07:25:00.620Z,3.277301587301587
2022-10-31T07:30:00.736Z,5.032021164021164
2022-10-31T07:35:01.090Z,4.67504761904762
2022-10-31T07:40:00.633Z,3.7112592592592595
2022-10-31T07:45:00.660Z,4.199661375661376
2022-10-31T07:50:00.618Z,5.351417989417989
2022-10-31T07:55:00.603Z,6.269396825396825
2022-10-31T08:00:00.623Z,5.055693121693122
2022-10-31T08:05:01.257Z,4.8201693121693125
2022-10-31T08:10:00.750Z,3.743291005291005
2022-10-31T08:15:00.614Z,3.8240634920634924
2022-10-31T08:20:00.665Z,3.3897037037037037
2022-10-31T08:25:00.664Z,2.4566560846560845
2022-10-31T08:30:00.648Z,1.9586137566137567
2022-10-31T08:35:00.610Z,2.4804973544973548
2022-10-31T08:40:00.729Z,4.36584126984127
2022-10-31T08:45:00.841Z,5.148497354497355
2022-10-31T08:50:00.681Z,5.409460317460318
2022-10-31T08:55:00.829Z,5.71221164021164
2022-10-31T09:00:00.626Z,5.890645502645503
2022-10-31T09:05:00.648Z,4.274063492063492
2022-10-31T09:10:00.714Z,2.285904761904762
2022-10-31T09:15:00.888Z,1.6107089947089945
2022-10-31T09:20:00.808Z,1.2637989417989417
2022-10-31T09:25:00.638Z,2.3385185185185184
2022-10-31T09:30:00.726Z,2.22373544973545
2022-10-31T09:35:00.842Z,1.4098201058201059
2022-10-31T09:40:00.652Z,1.471904761904762
2022-10-31T09:45:00.684Z,1.6202962962962963
2022-10-31T09:50:00.891Z,2.0502857142857147
2022-10-31T09:55:00.886Z,1.3742010582010582
2022-10-31T10:00:00.899Z,1.2973439153439155
2022-10-31T10:05:00.712Z,0.6202433862433863
2022-10-31T10:10:00.717Z,1.7992169312169313
2022-10-31T10:15:00.728Z,1.932931216931217
2022-10-31T10:20:00.749Z,2.4174179894179892
2022-10-31T10:25:00.784Z,2.6397566137566137
2022-10-31T10:30:00.868Z,2.6605291005291005
2022-10-31T10:35:00.791Z,2.2213439153439154
2022-10-31T10:40:00.785Z,2.0823280423280424
2022-10-31T10:45:00.812Z,1.6645185185185187
2022-10-31T10:50:00.788Z,1.9322328042328043
2022-10-31T10:55:00.846Z,2.607544973544974
2022-10-31T11:00:00.889Z,3.8161058201058204
2022-10-31T11:05:05.889Z,3.27573544973545
2022-10-31T11:10:00.775Z,5.43479365079365
2022-10-31T11:15:00.754Z,5.529269841269842
2022-10-31T11:20:00.837Z,5.232624338624339
2022-10-31T11:25:00.815Z,5.925164021164021
2022-10-31T11:30:01.062Z,6.602518518518519
2022-10-31T11:35:00.884Z,5.957587301587301
2022-10-31T11:40:00.968Z,5.67047619047619
2022-10-31T11:45:00.823Z,4.808063492063493
2022-10-31T11:50:00.835Z,4.023502645502646
2022-10-31T11:55:00.817Z,3.7531428571428576
2022-10-31T12:00:00.866Z,4.6605291005291
2022-10-31T12:05:00.855Z,6.394920634920635
2022-10-31T12:10:00.944Z,6.229396825396825
2022-10-31T12:15:01.188Z,7.608677248677248
2022-10-31T12:20:00.834Z,8.736328042328042
2022-10-31T12:25:00.804Z,9.121555555555554
2022-10-31T12:30:00.880Z,8.105703703703703
2022-10-31T12:35:00.831Z,6.191449735449735
2022-10-31T12:40:00.846Z,4.191206349206349
2022-10-31T12:45:00.948Z,2.138084656084656
2022-10-31T12:50:00.915Z,2.8587513227513224
2022-10-31T12:55:00.916Z,3.441513227513228
2022-10-31T13:00:01.142Z,3.40015873015873
2022-10-31T13:05:01.122Z,4.535280423280423
2022-10-31T13:20:01.049Z,7.2954708994709
2022-10-31T13:25:00.891Z,7.559047619047619
2022-10-31T13:30:00.890Z,6.2288148148148155
2022-10-31T13:35:00.852Z,5.622984126984126
2022-10-31T13:40:00.912Z,6.408751322751323
2022-10-31T13:45:00.982Z,5.234656084656085
2022-10-31T13:50:01.062Z,6.098275132275132
2022-10-31T13:55:01.069Z,4.631238095238095
2022-10-31T14:00:00.933Z,3.5075767195767193
2022-10-31T14:05:01.079Z,3.6231746031746033
2022-10-31T14:10:00.925Z,3.8378201058201062
2022-10-31T14:15:01.094Z,3.0936507936507938
2022-10-31T14:20:01.149Z,1.9013227513227513
2022-10-31T14:25:01.107Z,1.5264867724867726
2022-10-31T14:30:01.072Z,1.004031746031746
2022-10-31T14:35:00.945Z,0.7903068783068783
2022-10-31T14:40:00.969Z,0.7501798941798942
2022-10-31T14:45:00.956Z,0.6362222222222224
2022-10-31T14:50:00.934Z,0.5113439153439153
2022-10-31T14:55:00.950Z,0.5467936507936508
2022-10-31T15:00:02.723Z,0.3908042328042328
2022-10-31T15:05:01.157Z,0.41457142857142854
2022-10-31T15:10:00.956Z,0.24284656084656084
2022-10-31T15:15:01.172Z,0
2022-10-31T15:20:00.959Z,0
2022-10-31T15:25:01.056Z,0
2022-10-31T15:30:00.996Z,0
2022-10-31T15:35:01.052Z,0
2022-10-31T15:40:01.117Z,0
2022-10-31T15:45:01.208Z,0
2022-10-31T15:50:01.046Z,0
2022-10-31T15:55:00.974Z,0
2022-10-31T16:00:01.089Z,0
2022-10-31T16:05:00.998Z,0
2022-10-31T16:10:01.164Z,0
2022-10-31T16:15:01.121Z,0
2022-10-31T16:20:01.203Z,0
2022-10-31T16:25:01.090Z,0
2022-10-31T16:30:01.100Z,0
2022-10-31T16:35:01.070Z,0
2022-10-31T16:40:01.169Z,0
2022-10-31T16:45:01.044Z,0
2022-10-31T16:50:01.328Z,0
2022-10-31T16:55:01.163Z,0
2022-10-31T17:00:01.252Z,0
2022-10-31T17:05:01.073Z,0
2022-10-31T17:10:01.194Z,0
2022-10-31T17:15:01.308Z,0
2022-10-31T17:20:01.150Z,0
2022-10-31T17:25:01.123Z,0
2022-10-31T17:30:01.202Z,0
2022-10-31T17:35:01.279Z,0
2022-10-31T17:40:01.093Z,0
2022-10-31T17:45:01.119Z,0
2022-10-31T17:50:01.304Z,0
2022-10-31T17:55:01.102Z,0
2022-10-31T18:00:01.141Z,0
2022-10-31T18:05:01.373Z,0
2022-10-31T18:10:01.274Z,0
2022-10-31T18:15:01.166Z,0
2022-10-31T18:20:01.138Z,0
2022-10-31T18:25:01.977Z,0
2022-10-31T18:30:01.168Z,0
2022-10-31T18:35:01.210Z,0
2022-10-31T18:40:01.304Z,0
2022-10-31T18:45:06.569Z,0
2022-10-31T18:50:01.224Z,0
2022-10-31T18:55:01.145Z,0
2022-10-31T19:00:01.196Z,0
2022-10-31T19:05:01.174Z,0
2022-10-31T19:10:01.233Z,0
2022-10-31T19:15:01.312Z,0
2022-10-31T19:20:01.198Z,0
2022-10-31T19:25:02.996Z,0
2022-10-31T19:30:01.185Z,0
2022-10-31T19:35:01.150Z,0
2022-10-31T19:40:01.224Z,0
2022-10-31T19:45:01.271Z,0
2022-10-31T19:50:01.328Z,0
2022-10-31T19:55:01.356Z,0
2022-10-31T20:00:01.211Z,0
2022-10-31T20:05:01.228Z,0
2022-10-31T20:10:01.338Z,0
2022-10-31T20:15:01.169Z,0
2022-10-31T20:20:01.219Z,0
2022-10-31T20:25:01.372Z,0
2022-10-31T20:30:01.398Z,0
2022-10-31T20:35:01.281Z,0
2022-10-31T20:40:01.227Z,0
2022-10-31T20:45:01.263Z,0
2022-10-31T20:50:01.377Z,0
2022-10-31T20:55:01.264Z,0
2022-10-31T21:00:01.301Z,0
2022-10-31T21:05:01.421Z,0
2022-10-31T21:10:01.457Z,0
2022-10-31T21:15:01.323Z,0
2022-10-31T21:20:01.291Z,0
2022-10-31T21:25:01.293Z,0
2022-10-31T21:30:01.334Z,0
2022-10-31T21:35:01.375Z,0
2022-10-31T21:40:01.480Z,0
2022-10-31T21:45:01.439Z,0
2022-10-31T21:50:01.277Z,0
2022-10-31T21:55:01.325Z,0
2022-10-31T22:00:01.478Z,0
2022-10-31T22:05:01.321Z,0
2022-10-31T22:10:01.341Z,0
2022-10-31T22:15:01.467Z,0
2022-10-31T22:20:01.322Z,0
2022-10-31T22:25:01.389Z,0
2022-10-31T22:30:01.363Z,0
2022-10-31T22:35:01.346Z,0
2022-10-31T22:40:01.339Z,0
2022-10-31T22:45:01.444Z,0
2022-10-31T22:50:01.519Z,0
2022-10-31T22:55:01.373Z,0
2022-10-31T23:00:01.466Z,0
2022-10-31T23:05:01.405Z,0
2022-10-31T23:10:01.421Z,0
2022-10-31T23:15:01.556Z,0
2022-10-31T23:20:01.536Z,0
2022-10-31T23:25:01.391Z,0
2022-10-31T23:30:01.389Z,0
2022-10-31T23:35:01.400Z,0
2022-10-31T23:40:01.382Z,0
2022-10-31T23:45:01.555Z,0
2022-10-31T23:50:01.401Z,0
2022-10-31T23:55:01.454Z,0
